Time;durP1;ratioP1;P1;durP2;ratioP2;P2;SDS_P1;SDS_P2;PMS_P1;PMS_P2;Temp;Humidity;BMP_temperature;BMP_pressure;BME280_temperature;BME280_humidity;BME280_pressure;Samples;Min_cycle;Max_cycle;Signal;HPM_P1;HPM_P2
2022/06/20 00:01:44;;;;;;;2.28;2.08;;;27.50;66.00;;;;;;6340149;22;19999;-91
2022/06/20 00:04:18;;;;;;;2.38;1.80;;;27.50;66.10;;;;;;6311968;22;20308;-87
2022/06/20 00:06:43;;;;;;;3.67;1.90;;;27.50;66.20;;;;;;6339627;22;20005;-87
2022/06/20 00:09:11;;;;;;;2.47;1.88;;;27.40;66.20;;;;;;6339430;22;20007;-84
2022/06/20 00:11:41;;;;;;;3.05;2.22;;;27.50;66.30;;;;;;6339080;22;20002;-85
2022/06/20 00:14:14;;;;;;;3.15;2.20;;;27.40;66.40;;;;;;6339781;22;20059;-85
2022/06/20 00:16:41;;;;;;;2.15;1.90;;;27.50;66.50;;;;;;6339378;22;20042;-85
2022/06/20 00:19:07;;;;;;;2.80;2.10;;;27.40;66.50;;;;;;6339618;22;20322;-85
2022/06/20 00:21:32;;;;;;;2.83;1.75;;;27.40;66.60;;;;;;6339544;22;20133;-85
2022/06/20 00:23:58;;;;;;;2.60;1.83;;;27.40;66.60;;;;;;6339589;22;20417;-85
2022/06/20 00:26:24;;;;;;;3.10;2.00;;;27.40;66.70;;;;;;6311863;22;20009;-84
2022/06/20 00:28:49;;;;;;;2.00;1.67;;;27.40;66.80;;;;;;6339039;22;20013;-85
2022/06/20 00:31:15;;;;;;;2.97;2.00;;;27.30;66.80;;;;;;6339664;22;20006;-85
2022/06/20 00:33:42;;;;;;;3.17;2.30;;;27.30;66.80;;;;;;6311454;22;20137;-85
2022/06/20 00:36:07;;;;;;;3.35;1.80;;;27.30;67.00;;;;;;6339453;22;19999;-86
2022/06/20 00:38:35;;;;;;;2.15;1.80;;;27.30;67.00;;;;;;6338866;22;20006;-85
2022/06/20 00:41:11;;;;;;;1.83;1.67;;;27.30;67.10;;;;;;6339363;22;20002;-86
2022/06/20 00:43:40;;;;;;;3.63;1.80;;;27.30;67.20;;;;;;6338930;22;20021;-86
2022/06/20 00:46:17;;;;;;;3.08;2.00;;;27.30;67.30;;;;;;6339059;22;20053;-88
2022/06/20 00:48:52;;;;;;;1.80;1.70;;;27.30;67.50;;;;;;6340029;22;20383;-91
2022/06/20 00:51:31;;;;;;;2.03;1.80;;;27.20;67.60;;;;;;6340008;22;20077;-86
2022/06/20 00:54:04;;;;;;;2.28;1.60;;;27.20;67.90;;;;;;6339472;22;19999;-93
2022/06/20 00:56:45;;;;;;;4.30;1.80;;;27.20;68.00;;;;;;6339607;22;20003;-92
2022/06/20 00:59:15;;;;;;;3.42;1.98;;;27.10;68.00;;;;;;6312117;22;20003;-92
2022/06/20 01:01:42;;;;;;;2.83;2.10;;;27.10;68.10;;;;;;6340097;22;20093;-92
2022/06/20 01:04:23;;;;;;;3.45;2.17;;;27.10;68.10;;;;;;6312317;22;20003;-93
2022/06/20 01:06:54;;;;;;;1.65;1.55;;;27.00;68.50;;;;;;6312374;22;20082;-89
2022/06/20 01:09:24;;;;;;;2.38;1.90;;;27.00;68.90;;;;;;6338981;22;20074;-89
2022/06/20 01:11:51;;;;;;;;;;;27.00;68.90;;;;;;6340546;22;20003;-87
2022/06/20 01:14:33;;;;;;;2.08;1.70;;;27.00;69.10;;;;;;6339728;22;19906;-89
2022/06/20 01:17:05;;;;;;;1.95;1.85;;;27.00;68.90;;;;;;6339254;22;20435;-88
2022/06/20 01:19:43;;;;;;;2.75;2.15;;;27.00;69.10;;;;;;6311413;22;20367;-89
2022/06/20 01:22:29;;;;;;;3.53;2.30;;;27.00;69.10;;;;;;6339630;22;20409;-93
2022/06/20 01:25:21;;;;;;;2.35;1.95;;;27.00;70.40;;;;;;6311398;22;20505;-91
2022/06/20 01:27:49;;;;;;;2.10;1.65;;;26.90;70.40;;;;;;6318378;22;20010;-89
2022/06/20 01:30:16;;;;;;;3.63;2.15;;;26.90;70.20;;;;;;6340011;22;20005;-90
2022/06/20 01:32:43;;;;;;;2.75;2.08;;;26.90;70.00;;;;;;6339512;22;20006;-89
2022/06/20 01:35:11;;;;;;;2.70;2.10;;;26.80;70.00;;;;;;6311148;22;20007;-86
2022/06/20 01:37:41;;;;;;;4.90;2.00;;;26.80;70.10;;;;;;6339058;22;20085;-88
2022/06/20 01:40:14;;;;;;;2.85;2.40;;;26.80;70.10;;;;;;6338861;22;20032;-88
2022/06/20 01:42:42;;;;;;;2.67;2.20;;;26.80;70.20;;;;;;6310996;22;20006;-88
2022/06/20 01:48:06;;;;;;;3.38;2.10;;;26.70;70.40;;;;;;6338938;22;20009;-88
2022/06/20 01:50:33;;;;;;;3.85;2.40;;;26.70;70.60;;;;;;6339536;22;19995;-91
2022/06/20 01:53:02;;;;;;;3.15;2.40;;;26.70;70.70;;;;;;6340697;22;20417;-96
2022/06/20 01:55:30;;;;;;;2.77;2.27;;;26.50;70.90;;;;;;6312068;22;20324;-88
2022/06/20 01:58:06;;;;;;;3.47;2.28;;;26.30;70.90;;;;;;6339186;22;20457;-87
2022/06/20 02:00:32;;;;;;;5.75;2.45;;;26.30;71.00;;;;;;6311310;22;20082;-90
2022/06/20 02:03:09;;;;;;;3.67;3.30;;;26.40;70.90;;;;;;6312005;22;20018;-93
2022/06/20 02:05:35;;;;;;;3.67;3.03;;;26.30;71.00;;;;;;6311827;22;20003;-89
2022/06/20 02:08:04;;;;;;;3.72;2.42;;;26.30;70.60;;;;;;6341090;22;19998;-90
2022/06/20 02:10:44;;;;;;;2.87;2.57;;;26.30;70.40;;;;;;6340775;22;20021;-90
2022/06/20 02:13:11;;;;;;;2.58;2.35;;;26.30;70.50;;;;;;6340834;22;20436;-91
2022/06/20 02:15:38;;;;;;;4.95;2.63;;;26.30;70.20;;;;;;6340916;22;20007;-90
2022/06/20 02:18:07;;;;;;;4.90;3.65;;;26.20;70.10;;;;;;6341177;22;20073;-91
2022/06/20 02:20:45;;;;;;;4.60;2.60;;;26.20;70.50;;;;;;6341041;22;20426;-90
2022/06/20 02:23:13;;;;;;;4.03;3.45;;;26.20;70.00;;;;;;6313560;22;19998;-89
2022/06/20 02:25:39;;;;;;;10.73;6.75;;;26.10;69.80;;;;;;6341025;22;20007;-88
2022/06/20 02:28:11;;;;;;;6.25;5.65;;;25.60;70.10;;;;;;6340672;22;20003;-86
2022/06/20 02:30:38;;;;;;;4.18;3.80;;;25.40;71.50;;;;;;6313062;22;20338;-91
2022/06/20 02:33:25;;;;;;;3.75;3.13;;;25.30;71.30;;;;;;6312657;22;20026;-90
2022/06/20 02:35:53;;;;;;;4.97;3.72;;;25.40;71.00;;;;;;6312435;22;20041;-91
2022/06/20 02:38:20;;;;;;;3.47;3.17;;;25.50;70.60;;;;;;6340421;22;19999;-91
2022/06/20 02:40:47;;;;;;;4.22;3.47;;;25.60;70.30;;;;;;6312851;22;20413;-90
2022/06/20 02:43:22;;;;;;;6.97;5.15;;;25.70;69.90;;;;;;6339942;22;19995;-91
2022/06/20 02:45:49;;;;;;;5.30;4.20;;;25.70;69.70;;;;;;6312956;22;20006;-90
2022/06/20 02:48:16;;;;;;;5.03;3.88;;;25.50;70.00;;;;;;6312193;22;20050;-90
2022/06/20 02:50:47;;;;;;;4.75;3.58;;;25.40;70.10;;;;;;6340359;22;20078;-91
2022/06/20 02:53:20;;;;;;;5.05;3.40;;;25.40;70.00;;;;;;6340565;22;20010;-89
2022/06/20 02:55:47;;;;;;;4.55;3.80;;;25.40;69.90;;;;;;6312957;22;20014;-91
2022/06/20 02:58:25;;;;;;;4.30;3.78;;;25.50;69.80;;;;;;6341049;22;20070;-91
2022/06/20 03:00:57;;;;;;;3.78;3.42;;;25.40;69.90;;;;;;6340197;22;19995;-91
2022/06/20 03:03:30;;;;;;;5.03;3.38;;;25.40;70.10;;;;;;6340519;22;19998;-91
2022/06/20 03:05:57;;;;;;;6.20;4.70;;;25.40;69.90;;;;;;6313817;22;20094;-89
2022/06/20 03:08:23;;;;;;;4.22;3.55;;;25.30;70.30;;;;;;6340366;22;20480;-88
2022/06/20 03:10:52;;;;;;;4.90;3.45;;;25.20;70.30;;;;;;6341077;22;20027;-90
2022/06/20 03:13:21;;;;;;;4.88;3.00;;;25.10;70.40;;;;;;6312349;22;20007;-89
2022/06/20 03:15:49;;;;;;;3.90;3.25;;;25.10;70.20;;;;;;6339722;22;20083;-90
2022/06/20 03:18:18;;;;;;;3.85;3.38;;;25.20;70.10;;;;;;6339739;22;20070;-92
2022/06/20 03:20:45;;;;;;;3.95;3.30;;;25.30;69.80;;;;;;6313442;22;20003;-91
2022/06/20 03:23:19;;;;;;;5.22;3.50;;;25.30;69.80;;;;;;6340168;22;20059;-93
2022/06/20 03:25:45;;;;;;;4.57;3.30;;;25.40;69.80;;;;;;6340621;22;20010;-92
2022/06/20 03:28:14;;;;;;;3.63;3.22;;;25.40;69.50;;;;;;6339493;22;20003;-90
2022/06/20 03:30:40;;;;;;;3.35;3.03;;;25.40;69.70;;;;;;6340259;22;20006;-89
2022/06/20 03:33:11;;;;;;;4.40;3.60;;;25.40;69.50;;;;;;6312632;22;20010;-88
2022/06/20 03:35:39;;;;;;;3.95;3.33;;;25.40;70.00;;;;;;6340193;22;20002;-89
2022/06/20 03:38:07;;;;;;;5.07;3.33;;;25.30;69.60;;;;;;6340026;22;20074;-88
2022/06/20 03:40:35;;;;;;;5.82;3.85;;;25.40;69.60;;;;;;6313124;22;20003;-89
2022/06/20 03:43:01;;;;;;;4.05;3.42;;;25.50;69.70;;;;;;6340052;22;19999;-90
2022/06/20 03:45:32;;;;;;;3.75;3.42;;;25.50;69.90;;;;;;6340406;22;20006;-90
2022/06/20 03:48:17;;;;;;;4.90;4.20;;;25.50;69.70;;;;;;6339584;22;20362;-91
2022/06/20 03:50:47;;;;;;;5.90;4.05;;;25.50;69.60;;;;;;6340268;22;20010;-90
2022/06/20 03:53:37;;;;;;;7.70;4.22;;;25.50;69.60;;;;;;6340034;22;20014;-90
2022/06/20 03:56:12;;;;;;;4.60;3.57;;;25.50;69.50;;;;;;6276574;22;20010;-89
2022/06/20 03:58:49;;;;;;;7.95;3.65;;;25.50;69.30;;;;;;6340455;22;20002;-90
2022/06/20 04:01:26;;;;;;;4.50;3.90;;;25.50;69.20;;;;;;6340258;22;20002;-91
2022/06/20 04:03:59;;;;;;;5.30;3.53;;;25.60;69.40;;;;;;6339999;22;20005;-90
2022/06/20 04:06:51;;;;;;;4.88;3.83;;;25.50;69.20;;;;;;6339684;22;20429;-91
2022/06/20 04:12:42;;;;;;;4.63;3.80;;;25.40;69.40;;;;;;6339927;22;20082;-91
2022/06/20 04:15:18;;;;;;;9.52;4.82;;;25.40;69.50;;;;;;6340162;22;20030;-90
2022/06/20 04:18:28;;;;;;;5.32;4.18;;;25.50;69.70;;;;;;6340380;22;20367;-91
2022/06/20 04:21:08;;;;;;;4.90;4.40;;;25.50;69.80;;;;;;6323023;22;20452;-92
2022/06/20 04:23:41;;;;;;;4.95;4.35;;;25.50;69.50;;;;;;6340194;22;20414;-91
2022/06/20 04:26:20;;;;;;;6.40;4.75;;;25.50;69.60;;;;;;6340037;22;20003;-91
2022/06/20 04:29:09;;;;;;;5.47;4.40;;;25.50;69.80;;;;;;6340173;22;20078;-90
2022/06/20 04:31:41;;;;;;;6.53;4.73;;;25.50;70.00;;;;;;6340615;22;20048;-90
2022/06/20 04:34:24;;;;;;;4.50;4.05;;;25.50;70.00;;;;;;6340584;22;20002;-89
2022/06/20 04:37:00;;;;;;;5.03;4.55;;;25.50;70.00;;;;;;6311918;22;20029;-89
2022/06/20 04:39:29;;;;;;;6.43;4.38;;;25.50;70.40;;;;;;6312896;22;20007;-89
2022/06/20 04:42:08;;;;;;;6.20;4.68;;;25.50;70.30;;;;;;6311948;22;20333;-89
2022/06/20 04:44:44;;;;;;;6.95;4.80;;;25.50;70.90;;;;;;6339183;22;20001;-90
2022/06/20 04:47:50;;;;;;;4.25;3.85;;;25.40;71.20;;;;;;6338457;22;20329;-92
2022/06/20 04:50:28;;;;;;;6.75;5.22;;;25.40;70.90;;;;;;6311871;22;20015;-89
2022/06/20 04:52:59;;;;;;;5.93;5.07;;;25.40;71.30;;;;;;6339478;22;19998;-92
2022/06/20 04:55:27;;;;;;;5.97;5.25;;;25.40;71.20;;;;;;6339171;22;20078;-94
2022/06/20 04:57:57;;;;;;;5.93;4.60;;;25.40;71.60;;;;;;6339345;22;20003;-94
2022/06/20 05:00:37;;;;;;;5.22;4.50;;;25.40;71.40;;;;;;6339926;22;19999;-93
2022/06/20 05:03:06;;;;;;;5.50;4.63;;;25.40;71.20;;;;;;6312365;22;20010;-92
2022/06/20 05:05:38;;;;;;;5.60;4.93;;;25.50;71.40;;;;;;6339881;22;19999;-90
2022/06/20 05:08:07;;;;;;;6.40;4.35;;;25.50;71.30;;;;;;6339476;22;20009;-88
2022/06/20 05:10:41;;;;;;;14.80;4.53;;;25.50;71.40;;;;;;6339428;22;20456;-89
2022/06/20 05:13:07;;;;;;;5.28;4.78;;;25.60;71.70;;;;;;6339603;22;20361;-90
2022/06/20 05:15:46;;;;;;;4.70;4.28;;;25.60;71.50;;;;;;6311386;22;20056;-89
2022/06/20 05:18:27;;;;;;;5.53;4.30;;;25.60;71.60;;;;;;6338656;22;20006;-84
2022/06/20 05:20:57;;;;;;;5.40;4.45;;;25.60;71.60;;;;;;6338474;22;19995;-80
2022/06/20 05:23:28;;;;;;;;;;;25.60;72.00;;;;;;6338893;22;20329;-81
2022/06/20 05:25:55;;;;;;;6.85;4.90;;;25.60;72.30;;;;;;6338364;22;19899;-82
2022/06/20 05:28:24;;;;;;;5.00;4.07;;;25.70;72.70;;;;;;6338992;22;20003;-84
2022/06/20 05:30:50;;;;;;;5.15;4.57;;;25.70;72.40;;;;;;6338787;22;20025;-84
2022/06/20 05:33:43;;;;;;;4.75;4.30;;;25.70;72.70;;;;;;6338876;22;20413;-84
2022/06/20 05:36:29;;;;;;;5.30;4.80;;;25.70;72.70;;;;;;6337493;22;20011;-84
2022/06/20 05:39:05;;;;;;;4.57;4.18;;;25.70;73.20;;;;;;6337790;22;20006;-83
2022/06/20 05:41:31;;;;;;;5.97;4.20;;;25.80;72.80;;;;;;6337471;22;20420;-84
2022/06/20 05:43:57;;;;;;;4.43;4.03;;;25.80;73.10;;;;;;6338753;22;19999;-84
2022/06/20 05:46:36;;;;;;;6.15;4.45;;;25.80;73.40;;;;;;6337599;22;20010;-83
2022/06/20 05:49:10;;;;;;;5.65;4.57;;;25.90;73.30;;;;;;6337648;22;20042;-83
2022/06/20 05:51:38;;;;;;;7.03;4.40;;;25.90;74.30;;;;;;6339672;22;20417;-83
2022/06/20 05:54:24;;;;;;;3.85;3.35;;;25.90;73.70;;;;;;6340527;22;20009;-83
2022/06/20 05:56:57;;;;;;;4.60;4.18;;;25.90;73.70;;;;;;6338902;22;20003;-81
2022/06/20 05:59:33;;;;;;;5.22;4.18;;;25.90;73.90;;;;;;6340082;22;20367;-82
2022/06/20 06:02:09;;;;;;;4.75;4.13;;;25.90;74.50;;;;;;6338427;22;20429;-80
2022/06/20 06:04:59;;;;;;;5.85;4.78;;;25.90;74.00;;;;;;6338670;22;20005;-81
2022/06/20 06:07:40;;;;;;;4.50;4.10;;;25.90;74.90;;;;;;6337784;22;19999;-81
2022/06/20 06:10:28;;;;;;;5.68;3.90;;;26.00;74.60;;;;;;6338038;22;20397;-80
2022/06/20 06:13:16;;;;;;;5.28;3.83;;;26.00;75.00;;;;;;6338283;22;20482;-80
2022/06/20 06:18:52;;;;;;;4.80;4.00;;;26.20;74.80;;;;;;6337857;22;20098;-80
2022/06/20 06:21:18;;;;;;;4.68;3.67;;;26.20;75.40;;;;;;6337363;22;20048;-80
2022/06/20 06:23:45;;;;;;;5.05;4.00;;;26.30;75.30;;;;;;6337402;22;20460;-80
2022/06/20 06:26:15;;;;;;;7.43;4.50;;;26.30;77.00;;;;;;6337732;22;20042;-80
2022/06/20 06:28:42;;;;;;;5.82;3.38;;;26.30;76.90;;;;;;6337577;22;20049;-81
2022/06/20 06:31:31;;;;;;;3.72;3.25;;;26.30;76.10;;;;;;6338441;22;20440;-81
2022/06/20 06:34:15;;;;;;;6.32;4.22;;;26.40;76.80;;;;;;6337596;22;20055;-81
2022/06/20 06:36:43;;;;;;;3.83;3.45;;;26.40;78.00;;;;;;6338066;22;20026;-82
2022/06/20 06:39:15;;;;;;;4.47;3.70;;;26.40;77.10;;;;;;6337413;22;20066;-81
2022/06/20 06:41:46;;;;;;;3.85;3.53;;;26.50;77.30;;;;;;6309321;22;20082;-81
2022/06/20 06:44:31;;;;;;;3.67;3.38;;;26.50;78.40;;;;;;6338146;22;19999;-81
2022/06/20 06:46:58;;;;;;;3.55;3.25;;;26.50;78.20;;;;;;6338156;22;20543;-81
2022/06/20 06:49:44;;;;;;;4.18;3.67;;;26.50;77.90;;;;;;6338136;22;20090;-81
2022/06/20 06:52:25;;;;;;;3.80;3.50;;;26.60;79.00;;;;;;6310600;22;20030;-81
2022/06/20 06:54:56;;;;;;;3.50;3.20;;;26.70;77.90;;;;;;6340061;22;20010;-81
2022/06/20 06:57:38;;;;;;;3.67;3.38;;;26.70;77.80;;;;;;6339619;22;20030;-81
2022/06/20 07:00:03;;;;;;;4.68;3.80;;;26.80;78.00;;;;;;6338195;22;20022;-81
2022/06/20 07:02:35;;;;;;;5.13;4.50;;;26.80;77.60;;;;;;6338318;22;19994;-81
2022/06/20 07:05:14;;;;;;;4.35;3.65;;;26.80;78.10;;;;;;6339478;22;20005;-82
2022/06/20 07:07:51;;;;;;;21.83;19.73;;;26.80;78.10;;;;;;6310335;22;20070;-80
2022/06/20 07:10:21;;;;;;;100.45;90.30;;;26.80;77.70;;;;;;6338019;22;20005;-81
2022/06/20 07:12:51;;;;;;;26.50;23.88;;;26.80;77.00;;;;;;6339718;22;20369;-81
2022/06/20 07:15:17;;;;;;;10.07;7.45;;;26.80;77.20;;;;;;6339560;22;19999;-81
2022/06/20 07:17:55;;;;;;;5.50;4.43;;;26.90;76.80;;;;;;6339802;22;19995;-81
2022/06/20 07:20:32;;;;;;;3.47;3.25;;;26.90;76.30;;;;;;6339738;22;20278;-81
2022/06/20 07:23:02;;;;;;;3.60;3.30;;;27.00;76.20;;;;;;6339531;22;20021;-81
2022/06/20 07:25:35;;;;;;;2.92;2.60;;;27.10;75.40;;;;;;6339424;22;19999;-81
2022/06/20 07:28:25;;;;;;;3.45;2.67;;;27.20;75.20;;;;;;6340148;22;19998;-81
2022/06/20 07:31:00;;;;;;;2.65;2.40;;;27.20;74.80;;;;;;6343760;22;20069;-82
2022/06/20 07:33:42;;;;;;;3.38;2.25;;;27.30;74.50;;;;;;6338294;22;20417;-80
2022/06/20 07:36:11;;;;;;;2.47;2.28;;;27.30;74.00;;;;;;6337858;22;20003;-81
2022/06/20 07:38:52;;;;;;;3.35;2.30;;;27.40;73.50;;;;;;6339830;22;20046;-81
2022/06/20 07:41:23;;;;;;;3.50;2.90;;;27.40;72.90;;;;;;6339243;22;19999;-80
2022/06/20 07:44:05;;;;;;;3.35;2.40;;;27.50;73.00;;;;;;6339208;22;20026;-80
2022/06/20 07:46:41;;;;;;;2.75;2.20;;;27.50;72.20;;;;;;6338729;22;19999;-80
2022/06/20 07:49:17;;;;;;;2.40;2.20;;;27.50;72.00;;;;;;6338093;22;20023;-81
2022/06/20 07:51:47;;;;;;;2.22;2.10;;;27.60;71.80;;;;;;6339115;22;20060;-80
2022/06/20 07:54:19;;;;;;;2.50;2.30;;;27.60;71.50;;;;;;6339038;22;20314;-81
2022/06/20 07:56:59;;;;;;;3.47;2.55;;;27.60;71.50;;;;;;6338919;22;20420;-81
2022/06/20 07:59:51;;;;;;;4.00;2.67;;;27.70;72.50;;;;;;6338872;22;20002;-81
2022/06/20 08:02:27;;;;;;;3.92;3.00;;;27.70;72.80;;;;;;6338748;22;20029;-81
2022/06/20 08:04:58;;;;;;;3.22;2.45;;;27.70;73.80;;;;;;6338403;22;20071;-81
2022/06/20 08:07:46;;;;;;;9.05;2.97;;;27.60;73.60;;;;;;6338772;22;20090;-80
2022/06/20 08:10:32;;;;;;;3.97;3.25;;;27.60;74.30;;;;;;6338763;22;20064;-80
2022/06/20 08:13:11;;;;;;;4.22;3.55;;;27.70;74.60;;;;;;6339535;22;20000;-81
2022/06/20 08:15:50;;;;;;;3.67;3.38;;;27.80;75.10;;;;;;6339313;22;20405;-80
2022/06/20 08:18:16;;;;;;;3.90;3.50;;;27.80;74.10;;;;;;6339598;22;20405;-81
2022/06/20 08:20:47;;;;;;;3.72;3.33;;;27.80;74.30;;;;;;6339739;22;20003;-81
2022/06/20 08:23:17;;;;;;;3.58;3.25;;;27.90;73.90;;;;;;6341473;22;20003;-83
2022/06/20 08:25:57;;;;;;;3.33;3.03;;;28.00;73.80;;;;;;6339839;22;20006;-84
2022/06/20 08:28:33;;;;;;;5.15;3.00;;;28.00;73.60;;;;;;6339213;22;20025;-84
2022/06/20 08:31:11;;;;;;;3.50;2.67;;;28.10;73.40;;;;;;6339859;22;20086;-81
2022/06/20 08:34:07;;;;;;;2.65;2.45;;;28.10;72.20;;;;;;6341073;22;20023;-81
2022/06/20 08:36:36;;;;;;;3.15;2.85;;;28.10;71.70;;;;;;6338914;22;20034;-79
2022/06/20 08:39:13;;;;;;;3.10;2.67;;;28.20;71.80;;;;;;6337489;22;20407;-79
2022/06/20 08:41:44;;;;;;;3.70;3.00;;;28.20;71.70;;;;;;6339739;22;20006;-80
2022/06/20 08:44:25;;;;;;;3.75;3.03;;;28.30;71.40;;;;;;6339302;22;20093;-79
2022/06/20 08:47:21;;;;;;;6.30;2.90;;;28.30;71.30;;;;;;6338746;22;20468;-79
2022/06/20 08:50:02;;;;;;;2.80;2.30;;;28.50;72.00;;;;;;6310955;22;20022;-81
2022/06/20 08:52:30;;;;;;;4.68;2.53;;;28.50;71.80;;;;;;6340029;22;20014;-79
2022/06/20 08:55:05;;;;;;;2.55;2.35;;;28.60;71.30;;;;;;6339387;22;20003;-81
2022/06/20 08:57:52;;;;;;;2.33;2.13;;;28.60;71.20;;;;;;6339273;22;20011;-81
2022/06/20 09:00:25;;;;;;;6.07;2.20;;;28.70;71.00;;;;;;6340161;22;20278;-81
2022/06/20 09:03:00;;;;;;;2.42;1.90;;;28.70;70.50;;;;;;6339433;22;20009;-79
2022/06/20 09:05:26;;;;;;;2.58;2.38;;;28.80;70.20;;;;;;6333892;22;19999;-82
2022/06/20 09:08:28;;;;;;;3.03;2.20;;;28.80;69.60;;;;;;6339185;22;20473;-82
2022/06/20 09:11:39;;;;;;;2.42;2.13;;;28.90;69.60;;;;;;6337848;22;20058;-80
2022/06/20 09:14:22;;;;;;;3.45;2.13;;;28.90;68.60;;;;;;6339093;22;20002;-79
2022/06/20 09:17:15;;;;;;;2.60;2.08;;;29.00;68.00;;;;;;6338135;22;20093;-80
2022/06/20 09:20:18;;;;;;;3.13;2.03;;;29.00;68.20;;;;;;6338352;22;20074;-79
2022/06/20 09:23:02;;;;;;;2.33;2.13;;;29.00;68.00;;;;;;6338785;22;20321;-80
2022/06/20 09:25:36;;;;;;;3.15;2.60;;;29.10;68.30;;;;;;6311119;22;20037;-82
2022/06/20 09:28:10;;;;;;;2.30;2.03;;;29.20;68.30;;;;;;6338849;22;19995;-81
2022/06/20 09:31:09;;;;;;;3.47;2.75;;;29.30;68.40;;;;;;6338301;22;20006;-82
2022/06/20 09:34:02;;;;;;;3.30;2.63;;;29.30;68.20;;;;;;6338344;22;20485;-80
2022/06/20 09:36:51;;;;;;;3.42;2.58;;;29.50;68.50;;;;;;6310224;22;20313;-80
2022/06/20 09:39:31;;;;;;;2.30;2.10;;;29.50;67.80;;;;;;6310811;22;20310;-82
2022/06/20 09:42:24;;;;;;;2.92;2.30;;;29.60;67.20;;;;;;6338445;22;19999;-82
2022/06/20 09:45:10;;;;;;;3.13;2.67;;;29.70;67.20;;;;;;6338487;22;19995;-84
2022/06/20 09:47:58;;;;;;;3.78;2.88;;;29.80;67.10;;;;;;6311186;22;20026;-81
2022/06/20 09:50:46;;;;;;;2.65;2.45;;;29.80;67.50;;;;;;6310111;22;20042;-81
2022/06/20 09:53:15;;;;;;;2.70;2.10;;;29.90;67.60;;;;;;6339238;22;20007;-83
2022/06/20 09:55:58;;;;;;;2.40;2.20;;;30.00;67.30;;;;;;6339689;22;20371;-83
2022/06/20 09:58:42;;;;;;;3.00;2.45;;;30.10;67.10;;;;;;6338820;22;20421;-82
2022/06/20 10:01:45;;;;;;;2.42;2.13;;;30.10;67.10;;;;;;6338194;22;20006;-82
2022/06/20 10:04:18;;;;;;;2.85;2.10;;;30.20;66.50;;;;;;6339036;22;20289;-82
2022/06/20 10:06:59;;;;;;;4.15;1.83;;;30.20;65.80;;;;;;6338925;22;19999;-83
2022/06/20 10:09:47;;;;;;;2.30;1.85;;;30.30;65.30;;;;;;6339116;22;20059;-82
2022/06/20 10:12:39;;;;;;;3.45;2.15;;;30.40;65.60;;;;;;6339379;22;20455;-81
2022/06/20 10:15:20;;;;;;;3.58;1.90;;;30.50;64.70;;;;;;6338883;22;20063;-81
2022/06/20 10:17:55;;;;;;;2.55;2.13;;;30.60;64.90;;;;;;6338979;22;19998;-80
2022/06/20 10:20:36;;;;;;;2.40;1.90;;;30.70;64.70;;;;;;6339419;22;19999;-81
2022/06/20 10:23:28;;;;;;;2.15;1.83;;;30.70;64.10;;;;;;6311288;22;20329;-81
2022/06/20 10:26:06;;;;;;;1.98;1.80;;;30.80;63.20;;;;;;6338899;22;20003;-81
2022/06/20 10:28:47;;;;;;;2.13;1.92;;;30.90;62.60;;;;;;6339606;22;20006;-81
2022/06/20 10:31:35;;;;;;;2.13;1.67;;;30.90;61.60;;;;;;6340588;22;20029;-81
2022/06/20 10:34:12;;;;;;;3.10;1.70;;;31.00;62.10;;;;;;6313116;22;20003;-82
2022/06/20 10:36:51;;;;;;;1.92;1.38;;;31.10;60.90;;;;;;6339809;22;20006;-81
2022/06/20 10:39:24;;;;;;;1.47;1.37;;;31.20;59.80;;;;;;6340448;22;20295;-81
2022/06/20 10:42:06;;;;;;;2.92;1.83;;;31.40;59.90;;;;;;6339710;22;20002;-81
2022/06/20 10:45:07;;;;;;;1.45;1.23;;;31.40;55.80;;;;;;6339845;22;20002;-81
2022/06/20 10:48:00;;;;;;;1.85;1.40;;;31.50;57.00;;;;;;6339609;22;20003;-80
2022/06/20 10:50:49;;;;;;;2.97;1.50;;;31.60;56.70;;;;;;6339871;22;20015;-80
2022/06/20 10:53:15;;;;;;;2.13;1.40;;;31.70;57.20;;;;;;6318970;22;20006;-80
2022/06/20 10:56:02;;;;;;;7.20;1.95;;;31.80;56.50;;;;;;6339608;22;20424;-80
2022/06/20 10:59:01;;;;;;;2.13;1.67;;;31.90;53.30;;;;;;6340588;22;20350;-83
2022/06/20 11:01:55;;;;;;;2.30;1.58;;;32.00;55.50;;;;;;6337040;22;20030;-83
2022/06/20 11:04:53;;;;;;;2.40;1.88;;;32.10;54.60;;;;;;6340075;22;20496;-83
2022/06/20 11:07:43;;;;;;;2.50;1.83;;;32.10;55.70;;;;;;6339448;22;20013;-83
2022/06/20 11:10:50;;;;;;;3.65;1.25;;;32.10;55.80;;;;;;6312014;22;20042;-83
2022/06/20 11:13:37;;;;;;;2.53;1.50;;;32.30;55.60;;;;;;6340239;22;20013;-83
2022/06/20 11:16:26;;;;;;;3.05;1.80;;;32.60;55.90;;;;;;6339997;22;20068;-84
2022/06/20 11:19:12;;;;;;;2.05;1.90;;;32.80;55.90;;;;;;6339743;22;20005;-83
2022/06/20 11:21:48;;;;;;;2.95;1.70;;;32.90;55.90;;;;;;6339993;22;20006;-83
2022/06/20 11:24:42;;;;;;;3.33;2.30;;;33.10;55.60;;;;;;6340191;22;20003;-83
2022/06/20 11:27:44;;;;;;;2.92;2.00;;;33.20;55.80;;;;;;6339941;22;19999;-84
2022/06/20 11:30:19;;;;;;;3.00;1.90;;;33.40;56.00;;;;;;6339993;22;20056;-83
2022/06/20 11:33:07;;;;;;;3.10;2.05;;;33.70;56.30;;;;;;6339602;22;19999;-84
2022/06/20 11:36:02;;;;;;;2.45;2.15;;;34.00;55.60;;;;;;6339955;22;20486;-83
2022/06/20 11:38:51;;;;;;;3.42;2.22;;;34.30;55.30;;;;;;6328645;22;20006;-84
2022/06/20 11:41:21;;;;;;;;;;;34.50;56.00;;;;;;6341710;22;20003;-84
2022/06/20 11:44:06;;;;;;;;;;;34.70;55.20;;;;;;6342343;22;19967;-83
2022/06/20 11:47:09;;;;;;;2.78;1.92;;;35.00;55.00;;;;;;6342733;22;20015;-84
2022/06/20 11:50:02;;;;;;;2.55;1.98;;;35.10;55.20;;;;;;6341334;22;20306;-84
2022/06/20 11:52:42;;;;;;;3.63;2.00;;;35.30;55.50;;;;;;6312705;22;20076;-84
2022/06/20 11:55:43;;;;;;;3.90;1.85;;;35.50;54.90;;;;;;6340178;22;20088;-84
2022/06/20 11:58:17;;;;;;;4.22;2.20;;;35.80;54.70;;;;;;6340259;22;20056;-84
2022/06/20 12:01:01;;;;;;;3.17;1.95;;;35.90;54.50;;;;;;6340098;22;19998;-84
2022/06/20 12:03:34;;;;;;;5.40;2.42;;;36.00;52.90;;;;;;6339368;22;20002;-84
2022/06/20 12:06:18;;;;;;;3.10;2.00;;;36.10;53.70;;;;;;6339732;22;20005;-84
2022/06/20 12:08:59;;;;;;;3.83;2.00;;;36.10;53.00;;;;;;6312112;22;20010;-84
2022/06/20 12:11:30;;;;;;;3.45;2.30;;;36.30;52.50;;;;;;6340065;22;20055;-84
2022/06/20 12:14:14;;;;;;;2.17;1.98;;;36.30;52.00;;;;;;6339780;22;20005;-84
2022/06/20 12:16:49;;;;;;;1.83;1.50;;;36.40;53.20;;;;;;6339164;22;20523;-84
2022/06/20 12:25:23;;;;;;;2.92;1.80;;;36.80;52.80;;;;;;6339526;22;20048;-84
2022/06/20 12:27:49;;;;;;;2.88;1.70;;;36.90;51.90;;;;;;6311412;22;20003;-84
2022/06/20 12:30:16;;;;;;;2.72;1.83;;;37.00;51.90;;;;;;6339383;22;20070;-84
2022/06/20 12:32:47;;;;;;;4.03;1.98;;;37.10;51.70;;;;;;6339278;22;20055;-85
2022/06/20 12:35:19;;;;;;;3.40;1.88;;;37.10;51.40;;;;;;6339250;22;20353;-84
2022/06/20 12:38:08;;;;;;;3.72;1.60;;;37.20;51.40;;;;;;6339141;22;20066;-84
2022/06/20 12:40:48;;;;;;;3.10;1.90;;;37.30;50.40;;;;;;6339470;22;19999;-83
2022/06/20 12:43:13;;;;;;;2.90;1.80;;;37.20;50.70;;;;;;6339578;22;20420;-84
2022/06/20 12:45:56;;;;;;;2.85;1.73;;;37.20;51.10;;;;;;6339733;22;19998;-84
2022/06/20 12:48:30;;;;;;;2.63;1.80;;;37.30;50.60;;;;;;6338959;22;20432;-85
2022/06/20 12:51:18;;;;;;;3.30;1.70;;;37.40;51.00;;;;;;6338942;22;20026;-84
2022/06/20 12:54:07;;;;;;;3.00;1.70;;;37.50;49.80;;;;;;6338543;22;20010;-84
2022/06/20 12:56:44;;;;;;;2.75;2.10;;;37.50;50.00;;;;;;6338410;22;20006;-85
2022/06/20 12:59:19;;;;;;;2.67;1.83;;;37.60;49.40;;;;;;6310549;22;20003;-84
2022/06/20 13:02:06;;;;;;;2.75;1.98;;;37.50;50.10;;;;;;6338019;22;19998;-84
2022/06/20 13:05:14;;;;;;;3.83;1.90;;;37.50;50.80;;;;;;6338826;22;19999;-85
2022/06/20 13:08:02;;;;;;;2.65;1.60;;;37.50;49.60;;;;;;6338505;22;20058;-85
2022/06/20 13:10:32;;;;;;;3.28;1.80;;;37.60;50.30;;;;;;6259688;22;20003;-85
2022/06/20 13:12:57;;;;;;;;;;;37.30;50.10;;;;;;6311600;22;20006;-84
2022/06/20 13:15:41;;;;;;;2.80;1.88;;;37.30;49.50;;;;;;6338697;22;19974;-85
2022/06/20 13:18:31;;;;;;;3.47;1.70;;;37.20;49.20;;;;;;6338792;22;19999;-85
2022/06/20 13:21:18;;;;;;;2.08;1.60;;;37.00;50.20;;;;;;6339166;22;20061;-85
2022/06/20 13:23:59;;;;;;;4.72;2.53;;;37.00;50.00;;;;;;6339260;22;20048;-85
2022/06/20 13:26:57;;;;;;;3.38;1.80;;;36.90;50.80;;;;;;6339241;22;20005;-85
2022/06/20 13:30:02;;;;;;;3.22;1.48;;;36.80;50.90;;;;;;6253556;22;20056;-84
2022/06/20 13:32:40;;;;;;;4.93;1.58;;;36.90;50.90;;;;;;6311772;22;20056;-84
2022/06/20 13:35:42;;;;;;;2.75;1.85;;;37.00;51.10;;;;;;6311329;22;20007;-85
2022/06/20 13:38:25;;;;;;;2.40;1.48;;;37.00;50.60;;;;;;6338533;22;19999;-85
2022/06/20 13:41:09;;;;;;;4.95;1.70;;;36.90;50.90;;;;;;6339442;22;20435;-85
2022/06/20 13:43:51;;;;;;;2.47;1.60;;;36.90;50.40;;;;;;6311657;22;20104;-84
2022/06/20 13:46:29;;;;;;;3.40;1.90;;;36.80;51.10;;;;;;6339425;22;20409;-85
2022/06/20 13:49:08;;;;;;;1.98;1.50;;;36.60;51.30;;;;;;6310549;22;20022;-85
2022/06/20 13:51:36;;;;;;;3.78;1.98;;;36.60;51.30;;;;;;6338946;22;20078;-84
2022/06/20 13:54:21;;;;;;;2.85;1.73;;;36.50;51.70;;;;;;6338674;22;20003;-84
2022/06/20 13:57:07;;;;;;;2.97;1.73;;;36.50;51.70;;;;;;6338825;22;20010;-84